Time;durP1;ratioP1;P1;durP2;ratioP2;P2;SDS_P1;SDS_P2;PMS_P1;PMS_P2;Temp;Humidity;BMP_temperature;BMP_pressure;BME280_temperature;BME280_humidity;BME280_pressure;Samples;Min_cycle;Max_cycle;Signal;HPM_P1;HPM_P2
2023/07/11 00:01:28;;;;;;;0.68;0.50;;;;;;;24.63;50.37;100886.72;4553535;28;20195;-60
2023/07/11 00:03:38;;;;;;;0.60;0.60;;;;;;;24.62;50.49;100885.91;4553191;28;20480;-60
2023/07/11 00:06:04;;;;;;;0.63;0.60;;;;;;;24.62;50.52;100880.16;4553917;28;20152;-59
2023/07/11 00:08:15;;;;;;;0.75;0.70;;;;;;;24.59;50.75;100866.47;4552111;28;20068;-59
2023/07/11 00:10:25;;;;;;;0.82;0.60;;;;;;;24.59;51.02;100877.19;4553108;28;20126;-60
2023/07/11 00:12:36;;;;;;;0.88;0.80;;;;;;;24.56;50.41;100870.13;4553847;28;20068;-60
2023/07/11 00:14:46;;;;;;;0.57;0.50;;;;;;;24.62;50.34;100873.53;4553737;28;20029;-59
2023/07/11 00:16:56;;;;;;;0.95;0.68;;;;;;;24.57;50.09;100868.09;4555459;28;20048;-60
2023/07/11 00:19:07;;;;;;;0.88;0.70;;;;;;;24.62;50.45;100873.53;4555500;28;20120;-60
2023/07/11 00:21:18;;;;;;;0.77;0.70;;;;;;;24.60;50.38;100873.91;4555752;28;20139;-59
2023/07/11 00:23:28;;;;;;;0.80;0.70;;;;;;;24.58;50.39;100867.69;4556262;28;20150;-61
2023/07/11 00:25:38;;;;;;;0.95;0.60;;;;;;;24.43;50.54;100839.00;4556832;28;20135;-62
2023/07/11 00:27:49;;;;;;;1.75;0.68;;;;;;;24.60;50.64;100871.03;4557995;28;20197;-60
2023/07/11 00:29:59;;;;;;;0.68;0.60;;;;;;;24.60;50.47;100862.38;4556552;28;20037;-60
2023/07/11 00:32:12;;;;;;;0.65;0.60;;;;;;;24.59;50.32;100857.81;4556003;28;20033;-62
2023/07/11 00:34:22;;;;;;;0.77;0.65;;;;;;;24.58;50.51;100856.16;4556160;28;20036;-61
2023/07/11 00:36:32;;;;;;;0.68;0.60;;;;;;;24.57;50.20;100847.88;4555346;28;20036;-61
2023/07/11 00:38:43;;;;;;;0.50;0.50;;;;;;;24.58;50.56;100847.50;4557769;28;20579;-61
2023/07/11 00:40:53;;;;;;;0.60;0.50;;;;;;;24.40;50.89;100820.44;4556522;28;20021;-62
2023/07/11 00:43:04;;;;;;;0.95;0.70;;;;;;;24.56;50.15;100847.03;4555809;28;20063;-62
2023/07/11 00:45:49;;;;;;;0.40;0.40;;;;;;;24.59;50.45;100851.22;4542835;28;20032;-63
2023/07/11 00:47:59;;;;;;;0.55;0.50;;;;;;;24.44;50.16;100821.31;4557554;28;20353;-61
2023/07/11 00:50:11;;;;;;;0.65;0.65;;;;;;;24.55;50.31;100839.63;4556681;28;20335;-60
2023/07/11 00:52:22;;;;;;;1.23;0.77;;;;;;;24.59;50.31;100840.50;4557271;27;20032;-61
2023/07/11 00:54:36;;;;;;;0.73;0.60;;;;;;;24.45;49.79;100817.19;4546586;28;20262;-60
2023/07/11 00:56:48;;;;;;;0.73;0.60;;;;;;;24.56;50.14;100832.59;4554830;28;20129;-61
2023/07/11 00:59:00;;;;;;;0.70;0.60;;;;;;;24.56;49.95;100829.72;4557573;28;20036;-61
2023/07/11 01:01:12;;;;;;;1.10;0.70;;;;;;;24.55;50.17;100828.06;4557178;28;20028;-60
2023/07/11 01:03:23;;;;;;;0.88;0.65;;;;;;;24.55;50.41;100824.34;4544267;28;20064;-62
2023/07/11 01:05:34;;;;;;;0.60;0.60;;;;;;;24.58;50.15;100832.22;4557573;28;20794;-63
2023/07/11 01:07:44;;;;;;;0.60;0.60;;;;;;;24.55;50.15;100819.41;4557298;28;20032;-62
2023/07/11 01:09:55;;;;;;;1.30;0.65;;;;;;;24.54;50.27;100823.53;4557089;28;20055;-61
2023/07/11 01:12:08;;;;;;;1.50;0.70;;;;;;;24.54;49.99;100820.66;4556541;28;20043;-61
2023/07/11 01:14:18;;;;;;;0.60;0.60;;;;;;;24.55;50.05;100816.53;4555472;28;20571;-61
2023/07/11 01:16:29;;;;;;;0.70;0.70;;;;;;;24.55;49.77;100812.78;4561672;27;20065;-61
2023/07/11 01:18:39;;;;;;;0.95;0.70;;;;;;;24.55;49.95;100816.53;4556687;28;20147;-60
2023/07/11 01:20:49;;;;;;;1.20;0.73;;;;;;;24.50;49.80;100796.66;4557215;28;20047;-60
2023/07/11 01:23:00;;;;;;;1.02;0.60;;;;;;;24.55;49.53;100807.88;4555833;28;20494;-61
2023/07/11 01:25:13;;;;;;;1.02;0.60;;;;;;;24.52;49.40;100794.22;4555282;28;20613;-61
2023/07/11 01:27:24;;;;;;;0.70;0.70;;;;;;;24.52;49.63;100800.00;4573145;27;20020;-61
2023/07/11 01:29:35;;;;;;;1.02;0.73;;;;;;;24.52;49.16;100791.34;4571910;27;20032;-62
2023/07/11 01:31:45;;;;;;;0.60;0.60;;;;;;;24.53;48.71;100795.06;4556058;28;20869;-61
2023/07/11 01:33:56;;;;;;;0.75;0.70;;;;;;;24.52;49.28;100791.34;4555306;28;20759;-60
2023/07/11 01:36:06;;;;;;;0.60;0.60;;;;;;;24.54;49.17;100786.00;4554710;28;20177;-61
2023/07/11 01:38:17;;;;;;;1.25;0.60;;;;;;;24.51;49.54;100783.91;4556523;28;20036;-62
2023/07/11 01:40:27;;;;;;;0.88;0.70;;;;;;;24.47;49.18;100780.13;4556284;28;20033;-60
2023/07/11 01:42:39;;;;;;;1.17;0.55;;;;;;;24.51;49.23;100783.91;4555898;28;20043;-62
2023/07/11 01:44:50;;;;;;;1.23;0.77;;;;;;;24.49;49.21;100774.81;4556345;28;20822;-61
2023/07/11 01:47:02;;;;;;;0.63;0.60;;;;;;;24.49;48.86;100777.69;4554994;28;20039;-60
2023/07/11 01:49:12;;;;;;;0.82;0.75;;;;;;;24.35;48.71;100751.50;4556403;28;20082;-60
2023/07/11 01:51:23;;;;;;;0.70;0.70;;;;;;;24.52;48.94;100779.78;4570938;27;20458;-60
2023/07/11 01:53:33;;;;;;;0.50;0.50;;;;;;;24.49;48.74;100771.91;4555935;28;20353;-60
2023/07/11 01:55:54;;;;;;;1.08;0.77;;;;;;;24.52;48.62;100776.91;4556244;28;20040;-60
2023/07/11 01:58:04;;;;;;;0.60;0.60;;;;;;;24.48;48.55;100772.31;4554432;28;20024;-60
2023/07/11 02:00:15;;;;;;;0.90;0.65;;;;;;;24.48;48.77;100767.34;4554590;28;20061;-60
2023/07/11 02:02:35;;;;;;;1.13;0.70;;;;;;;24.48;49.02;100776.00;4553348;28;20045;-60
2023/07/11 02:04:45;;;;;;;1.10;0.70;;;;;;;24.51;48.76;100778.13;4556058;28;20048;-59
2023/07/11 02:06:56;;;;;;;0.98;0.70;;;;;;;24.52;48.69;100770.28;4556027;28;20110;-60
2023/07/11 02:09:06;;;;;;;1.10;0.70;;;;;;;24.50;48.80;100762.03;4557594;28;20050;-60
2023/07/11 02:11:17;;;;;;;0.77;0.60;;;;;;;24.49;48.76;100763.25;4555156;28;20040;-60
2023/07/11 02:13:27;;;;;;;0.60;0.60;;;;;;;24.43;48.58;100761.94;4555545;28;20359;-60
2023/07/11 02:15:38;;;;;;;0.68;0.60;;;;;;;24.49;48.86;100760.38;4553971;28;20041;-60
2023/07/11 02:17:48;;;;;;;0.88;0.60;;;;;;;24.50;48.84;100764.06;4555409;28;20048;-60
2023/07/11 02:19:59;;;;;;;0.68;0.60;;;;;;;24.48;48.70;100760.75;4555979;28;20043;-60
2023/07/11 02:22:11;;;;;;;1.00;0.60;;;;;;;24.48;48.71;100757.88;4555980;28;20503;-60
2023/07/11 02:24:21;;;;;;;0.40;0.40;;;;;;;24.47;49.02;100757.03;4557348;28;20036;-60
2023/07/11 02:26:32;;;;;;;0.60;0.60;;;;;;;24.49;48.76;100768.19;4557061;28;20036;-60
2023/07/11 02:28:42;;;;;;;0.68;0.60;;;;;;;24.43;48.74;100750.41;4556420;28;20071;-59
2023/07/11 02:30:53;;;;;;;0.98;0.60;;;;;;;24.48;48.81;100761.56;4555020;28;20029;-60
2023/07/11 02:33:03;;;;;;;0.80;0.70;;;;;;;24.47;48.72;100759.94;4555353;28;20063;-60
2023/07/11 02:35:14;;;;;;;0.57;0.57;;;;;;;24.45;48.42;100756.59;4554301;28;20040;-60
2023/07/11 02:37:24;;;;;;;0.90;0.60;;;;;;;24.45;48.57;100753.69;4554082;28;20504;-60
2023/07/11 02:39:35;;;;;;;0.75;0.60;;;;;;;24.46;48.42;100752.50;4555144;28;20058;-60
2023/07/11 02:41:45;;;;;;;0.77;0.60;;;;;;;24.46;48.45;100749.63;4554174;28;20022;-60
2023/07/11 02:43:56;;;;;;;0.82;0.65;;;;;;;24.44;48.65;100745.44;4554689;28;20045;-60
2023/07/11 02:46:07;;;;;;;1.25;0.70;;;;;;;24.47;48.49;100751.25;4554958;28;20040;-60
2023/07/11 02:48:17;;;;;;;0.68;0.68;;;;;;;24.46;48.51;100755.38;4554211;28;20397;-61
2023/07/11 02:50:27;;;;;;;0.60;0.60;;;;;;;24.47;48.53;100744.66;4555051;28;20127;-59
2023/07/11 02:52:38;;;;;;;0.70;0.70;;;;;;;24.47;48.68;100745.50;4555467;28;20483;-60
2023/07/11 02:54:49;;;;;;;1.05;0.60;;;;;;;24.42;48.05;100742.94;4555618;28;20639;-60
2023/07/11 02:56:59;;;;;;;1.15;0.60;;;;;;;24.44;48.17;100745.44;4555970;28;20120;-60
2023/07/11 02:59:09;;;;;;;0.50;0.50;;;;;;;24.44;48.30;100740.50;4554631;28;20064;-60
2023/07/11 03:01:20;;;;;;;0.70;0.60;;;;;;;24.44;48.53;100740.50;4555641;28;20064;-60
2023/07/11 03:03:31;;;;;;;0.90;0.75;;;;;;;24.45;48.53;100742.16;4555874;27;20039;-60
2023/07/11 03:05:49;;;;;;;1.00;0.65;;;;;;;24.40;48.37;100730.97;4555516;28;20041;-60
2023/07/11 03:08:00;;;;;;;1.23;0.70;;;;;;;24.41;48.04;100735.53;4555996;28;20522;-61
2023/07/11 03:10:10;;;;;;;0.50;0.50;;;;;;;24.45;48.26;100741.34;4553542;28;20083;-60
2023/07/11 03:12:21;;;;;;;0.60;0.60;;;;;;;24.44;48.07;100734.75;4553637;28;20036;-60
2023/07/11 03:14:31;;;;;;;0.50;0.50;;;;;;;24.40;47.85;100728.09;4555264;28;20035;-60
2023/07/11 03:16:42;;;;;;;0.70;0.70;;;;;;;24.44;48.05;100731.84;4554004;28;20044;-61
2023/07/11 03:18:52;;;;;;;0.60;0.60;;;;;;;24.30;48.03;100705.69;4555662;28;20032;-61
2023/07/11 03:21:03;;;;;;;0.75;0.70;;;;;;;24.42;48.18;100722.75;4555415;28;20075;-60
2023/07/11 03:23:15;;;;;;;0.65;0.60;;;;;;;24.44;48.07;100723.19;4541497;28;20132;-60
2023/07/11 03:25:26;;;;;;;0.77;0.52;;;;;;;24.44;47.71;100728.97;4554906;28;20600;-60
2023/07/11 03:27:36;;;;;;;1.00;0.60;;;;;;;24.42;47.98;100721.94;4555650;28;20061;-60
2023/07/11 03:29:46;;;;;;;0.82;0.60;;;;;;;24.42;48.13;100727.72;4553254;28;20028;-61
2023/07/11 03:31:57;;;;;;;1.23;0.50;;;;;;;24.41;48.09;100715.31;4554453;28;20747;-61
2023/07/11 03:34:07;;;;;;;1.20;0.70;;;;;;;24.39;48.03;100714.03;4535355;28;20247;-61
2023/07/11 03:36:19;;;;;;;0.50;0.50;;;;;;;24.38;48.25;100710.34;4535200;28;20060;-61
2023/07/11 03:38:30;;;;;;;0.70;0.65;;;;;;;24.41;47.89;100703.78;4554007;28;20574;-61
2023/07/11 03:40:40;;;;;;;0.75;0.50;;;;;;;24.40;48.27;100699.25;4552474;28;20040;-62
2023/07/11 03:42:51;;;;;;;0.95;0.60;;;;;;;24.42;47.73;100708.31;4553669;28;20036;-63
2023/07/11 03:45:02;;;;;;;0.60;0.60;;;;;;;24.40;47.79;100702.13;4553577;28;20080;-61
2023/07/11 03:47:12;;;;;;;0.60;0.60;;;;;;;24.39;47.67;100700.44;4553586;28;20135;-61
2023/07/11 03:49:23;;;;;;;0.70;0.52;;;;;;;24.37;47.90;100693.41;4550837;28;20523;-61
2023/07/11 03:51:33;;;;;;;1.23;0.52;;;;;;;24.39;48.46;100696.72;4553000;28;20037;-62
2023/07/11 03:53:44;;;;;;;1.45;0.80;;;;;;;24.38;48.49;100693.03;4554078;28;20061;-61
2023/07/11 03:55:54;;;;;;;0.60;0.57;;;;;;;24.40;48.30;100695.53;4552455;28;20086;-61
2023/07/11 03:58:04;;;;;;;0.90;0.63;;;;;;;24.43;48.44;100701.34;4554023;28;20041;-61
2023/07/11 04:00:15;;;;;;;1.27;0.50;;;;;;;24.42;48.39;100699.66;4552699;28;20064;-61
2023/07/11 04:02:26;;;;;;;0.75;0.50;;;;;;;24.43;48.13;100686.06;4554206;28;20267;-61
2023/07/11 04:04:36;;;;;;;1.17;0.50;;;;;;;24.42;48.29;100678.66;4551135;28;20043;-62
2023/07/11 04:06:47;;;;;;;0.60;0.50;;;;;;;24.42;48.25;100682.34;4551916;28;20036;-61
2023/07/11 04:08:57;;;;;;;0.70;0.60;;;;;;;24.42;48.37;100681.53;4553004;28;20302;-61
2023/07/11 04:11:08;;;;;;;0.57;0.57;;;;;;;24.40;48.67;100687.72;4553772;28;20098;-62
2023/07/11 04:13:18;;;;;;;1.00;0.80;;;;;;;24.40;48.46;100670.41;4553856;28;20041;-61
2023/07/11 04:15:29;;;;;;;0.90;0.60;;;;;;;24.41;48.32;100674.94;4552759;28;20047;-61
2023/07/11 04:17:40;;;;;;;0.57;0.57;;;;;;;24.40;48.21;100673.28;4552218;28;20020;-62
2023/07/11 04:19:51;;;;;;;1.38;0.60;;;;;;;24.36;48.45;100666.63;4551833;28;20151;-61
2023/07/11 04:22:01;;;;;;;0.52;0.50;;;;;;;24.39;48.22;100667.88;4552936;28;20036;-61
2023/07/11 04:24:12;;;;;;;1.38;0.50;;;;;;;24.39;48.49;100671.59;4552825;28;20052;-61
2023/07/11 04:26:22;;;;;;;0.73;0.60;;;;;;;24.38;48.46;100675.72;4554118;28;20103;-61
2023/07/11 04:28:32;;;;;;;1.00;0.80;;;;;;;24.40;48.55;100672.44;4552833;28;20033;-61
2023/07/11 04:30:43;;;;;;;0.68;0.60;;;;;;;24.41;48.20;100663.38;4553365;28;20036;-61
2023/07/11 04:32:53;;;;;;;1.00;0.60;;;;;;;24.40;48.50;100663.78;4553797;28;21011;-61
2023/07/11 04:35:10;;;;;;;0.70;0.50;;;;;;;24.41;48.81;100672.03;4547593;28;20090;-61
2023/07/11 04:37:21;;;;;;;0.98;0.63;;;;;;;24.38;48.60;100661.28;4554530;28;20037;-61
2023/07/11 04:39:31;;;;;;;0.77;0.60;;;;;;;24.43;48.79;100663.84;4555833;28;20799;-61
2023/07/11 04:41:42;;;;;;;0.55;0.50;;;;;;;24.40;49.04;100652.25;4553215;28;21181;-62
2023/07/11 04:43:52;;;;;;;1.75;0.60;;;;;;;24.35;48.58;100650.53;4553076;28;20079;-61
2023/07/11 04:46:05;;;;;;;1.05;0.77;;;;;;;24.34;47.47;100660.41;4553393;28;20433;-61
2023/07/11 04:48:15;;;;;;;1.30;0.68;;;;;;;24.30;47.29;100652.91;4554734;28;20833;-61
2023/07/11 04:50:25;;;;;;;1.80;0.80;;;;;;;24.21;47.17;100635.94;4554070;28;20042;-61
2023/07/11 04:52:36;;;;;;;0.73;0.73;;;;;;;24.24;47.61;100648.72;4553818;28;20198;-60
2023/07/11 04:54:46;;;;;;;0.93;0.65;;;;;;;24.19;47.99;100646.16;4552986;28;20037;-61
2023/07/11 04:56:58;;;;;;;1.48;0.85;;;;;;;24.18;48.51;100645.34;4554305;28;20511;-61
2023/07/11 04:59:09;;;;;;;1.42;0.70;;;;;;;24.17;48.97;100642.84;4554967;28;20567;-61
2023/07/11 05:01:19;;;;;;;1.10;0.70;;;;;;;24.11;49.06;100630.84;4552586;28;20388;-61
2023/07/11 05:03:30;;;;;;;2.67;0.90;;;;;;;24.12;49.52;100635.38;4554489;28;20044;-62
2023/07/11 05:05:40;;;;;;;0.70;0.57;;;;;;;24.12;51.08;100623.03;4552892;28;20040;-61
2023/07/11 05:07:51;;;;;;;0.70;0.70;;;;;;;24.11;56.48;100625.06;4553810;28;20044;-61
2023/07/11 05:10:01;;;;;;;1.45;0.70;;;;;;;24.13;58.32;100624.66;4556380;28;20094;-61
2023/07/11 05:12:12;;;;;;;1.55;0.70;;;;;;;24.09;59.21;100615.13;4557453;28;20071;-62
2023/07/11 05:14:23;;;;;;;0.85;0.68;;;;;;;24.07;58.92;100618.41;4556172;28;20067;-64
2023/07/11 05:16:34;;;;;;;1.10;0.73;;;;;;;24.06;57.42;100608.09;4556386;28;20039;-61
2023/07/11 05:18:46;;;;;;;0.90;0.70;;;;;;;24.08;54.60;100611.44;4556622;28;20043;-62
2023/07/11 05:20:58;;;;;;;1.27;0.55;;;;;;;24.08;55.24;100611.44;4557404;28;20091;-61
2023/07/11 05:23:08;;;;;;;0.63;0.60;;;;;;;24.09;55.04;100615.13;4557897;28;20136;-61
2023/07/11 05:25:18;;;;;;;1.33;0.68;;;;;;;24.05;54.08;100603.56;4557172;28;20051;-61
2023/07/11 05:27:29;;;;;;;0.73;0.68;;;;;;;24.05;54.47;100609.31;4557160;28;20036;-61
2023/07/11 05:29:40;;;;;;;0.82;0.70;;;;;;;24.07;54.45;100600.28;4557386;28;20297;-62
2023/07/11 05:31:50;;;;;;;1.35;0.70;;;;;;;24.05;53.63;100600.69;4557202;28;20101;-61
2023/07/11 05:34:00;;;;;;;0.68;0.57;;;;;;;24.04;54.34;100590.34;4555004;28;20134;-61
2023/07/11 05:36:39;;;;;;;0.68;0.60;;;;;;;24.07;54.79;100598.22;4555403;28;20828;-61
2023/07/11 05:38:49;;;;;;;1.55;0.70;;;;;;;24.06;54.35;100595.72;4555615;28;20114;-62
2023/07/11 05:41:00;;;;;;;0.73;0.73;;;;;;;24.06;54.08;100598.59;4557315;28;20029;-62
2023/07/11 05:43:11;;;;;;;0.93;0.60;;;;;;;24.06;54.95;100599.44;4557733;28;20036;-61
2023/07/11 05:45:21;;;;;;;0.88;0.70;;;;;;;24.05;54.66;100600.69;4557443;28;20043;-62
2023/07/11 05:47:32;;;;;;;0.90;0.88;;;;;;;24.04;54.36;100589.53;4557400;28;20472;-61
2023/07/11 05:49:42;;;;;;;0.80;0.70;;;;;;;24.02;54.63;100584.16;4556336;28;20433;-61
2023/07/11 05:51:53;;;;;;;1.00;0.77;;;;;;;24.06;54.33;100590.78;4555283;28;20036;-61
2023/07/11 05:54:03;;;;;;;1.73;0.70;;;;;;;24.06;54.32;100590.78;4556941;28;20453;-61
2023/07/11 05:56:14;;;;;;;1.30;0.90;;;;;;;24.03;54.06;100580.03;4556709;28;20047;-61
2023/07/11 05:58:25;;;;;;;0.90;0.77;;;;;;;24.04;54.18;100587.47;4555804;28;20280;-61
2023/07/11 06:00:36;;;;;;;0.80;0.80;;;;;;;24.05;54.06;100576.78;4556086;28;20716;-61
2023/07/11 06:02:46;;;;;;;0.95;0.80;;;;;;;24.00;53.84;100571.34;4556844;28;20164;-61
2023/07/11 06:04:56;;;;;;;1.10;1.00;;;;;;;24.06;54.00;100572.66;4555510;28;20131;-61
2023/07/11 06:07:07;;;;;;;0.90;0.80;;;;;;;24.05;53.14;100574.72;4556169;28;20032;-60
2023/07/11 06:09:20;;;;;;;0.90;0.73;;;;;;;24.06;53.08;100570.59;4556534;28;20036;-61
2023/07/11 06:11:30;;;;;;;1.02;0.90;;;;;;;24.01;52.94;100562.28;4556072;28;20755;-61
2023/07/11 06:13:41;;;;;;;0.80;0.80;;;;;;;24.01;53.40;100550.75;4555198;28;20063;-61
2023/07/11 06:16:00;;;;;;;0.80;0.80;;;;;;;24.06;54.18;100559.06;4554934;28;20043;-61
2023/07/11 06:18:10;;;;;;;1.38;0.80;;;;;;;24.03;54.48;100551.22;4555448;28;20043;-61
2023/07/11 06:20:21;;;;;;;0.77;0.77;;;;;;;24.04;54.81;100555.75;4554970;28;20047;-61
2023/07/11 06:22:31;;;;;;;0.80;0.80;;;;;;;24.06;54.61;100559.06;4554116;28;20025;-61
2023/07/11 06:24:41;;;;;;;1.00;0.90;;;;;;;24.04;53.89;100543.41;4556596;28;20479;-61
2023/07/11 06:26:52;;;;;;;1.10;0.80;;;;;;;24.04;53.76;100540.50;4555445;28;20045;-63
2023/07/11 06:29:02;;;;;;;1.25;0.80;;;;;;;24.05;54.05;100536.41;4555238;28;20020;-63
2023/07/11 06:31:13;;;;;;;1.10;1.00;;;;;;;24.08;53.50;100547.16;4555422;28;20047;-62
2023/07/11 06:33:24;;;;;;;1.00;0.90;;;;;;;24.07;53.62;100539.72;4555091;28;20035;-63
2023/07/11 06:35:36;;;;;;;1.00;0.90;;;;;;;23.97;54.61;100529.72;4555629;27;20040;-63
2023/07/11 06:37:47;;;;;;;0.85;0.85;;;;;;;24.05;54.74;100534.34;4572374;27;20090;-63
2023/07/11 06:39:57;;;;;;;0.80;0.80;;;;;;;24.09;54.62;100538.09;4555519;28;20118;-63
2023/07/11 06:42:08;;;;;;;1.10;1.00;;;;;;;24.08;54.58;100532.72;4556311;28;20567;-63
2023/07/11 06:44:21;;;;;;;1.00;0.90;;;;;;;24.08;54.47;100527.81;4555949;28;21150;-63
2023/07/11 06:46:31;;;;;;;1.38;0.98;;;;;;;24.04;54.27;100528.97;4555801;28;20032;-63
2023/07/11 06:48:43;;;;;;;1.08;0.90;;;;;;;24.10;54.19;100528.22;4570871;27;20508;-63
2023/07/11 06:50:58;;;;;;;1.10;1.00;;;;;;;24.09;54.35;100529.44;4554419;28;20037;-63
2023/07/11 06:53:09;;;;;;;1.20;0.90;;;;;;;24.12;54.40;100530.72;4556261;28;20579;-64
2023/07/11 06:55:19;;;;;;;1.13;1.00;;;;;;;24.12;54.26;100530.72;4554117;28;20036;-64
2023/07/11 06:57:29;;;;;;;1.10;1.00;;;;;;;24.12;54.37;100528.66;4555213;28;20120;-63
2023/07/11 06:59:41;;;;;;;1.38;0.93;;;;;;;24.11;54.81;100518.34;4553989;28;20170;-62
2023/07/11 07:01:51;;;;;;;1.10;1.00;;;;;;;24.11;54.79;100524.13;4559860;27;20052;-61
2023/07/11 07:04:01;;;;;;;0.88;0.82;;;;;;;24.09;54.56;100515.03;4554982;28;20048;-62
2023/07/11 07:06:13;;;;;;;1.05;0.95;;;;;;;24.10;53.98;100513.78;4555906;28;20051;-61
2023/07/11 07:08:25;;;;;;;1.55;1.02;;;;;;;24.10;53.25;100515.88;4555098;28;20029;-61
2023/07/11 07:10:35;;;;;;;1.27;1.00;;;;;;;24.10;52.98;100508.03;4555346;28;20044;-61
2023/07/11 07:12:46;;;;;;;0.95;0.90;;;;;;;24.12;52.95;100519.19;4554853;28;20028;-61
2023/07/11 07:14:56;;;;;;;1.23;0.98;;;;;;;24.11;52.94;100518.34;4554784;28;20044;-61
2023/07/11 07:17:06;;;;;;;1.10;1.00;;;;;;;24.11;52.68;100511.75;4555929;28;20032;-61
2023/07/11 07:19:17;;;;;;;1.23;1.00;;;;;;;24.11;52.62;100515.47;4555522;28;20048;-61
2023/07/11 07:21:27;;;;;;;1.10;1.00;;;;;;;24.12;52.87;100520.00;4554108;28;20152;-61
2023/07/11 07:23:38;;;;;;;1.25;1.10;;;;;;;24.10;53.61;100502.25;4554548;28;20067;-61
2023/07/11 07:25:50;;;;;;;1.33;1.15;;;;;;;24.13;53.02;100506.44;4554871;28;20043;-61
2023/07/11 07:28:01;;;;;;;1.33;0.80;;;;;;;24.05;52.81;100479.56;4553000;28;20590;-61
2023/07/11 07:30:12;;;;;;;0.90;0.90;;;;;;;24.25;52.61;100501.22;4553470;28;20036;-61
2023/07/11 07:32:22;;;;;;;0.80;0.70;;;;;;;24.20;52.25;100483.41;4555176;28;20119;-58
2023/07/11 07:34:33;;;;;;;0.90;0.90;;;;;;;24.34;52.70;100498.84;4553816;28;20123;-59
2023/07/11 07:36:43;;;;;;;1.02;0.90;;;;;;;24.34;52.06;100492.25;4554774;28;20181;-59
2023/07/11 07:38:54;;;;;;;0.98;0.90;;;;;;;24.40;52.01;100507.97;4553283;28;20051;-59
2023/07/11 07:41:06;;;;;;;1.20;0.80;;;;;;;24.44;51.85;100503.06;4555759;28;20408;-59
2023/07/11 07:43:17;;;;;;;1.10;1.00;;;;;;;24.44;52.00;100497.28;4555163;28;20059;-59
2023/07/11 07:45:27;;;;;;;0.88;0.70;;;;;;;24.46;51.92;100492.81;4553271;28;20073;-59
2023/07/11 07:47:38;;;;;;;0.93;0.80;;;;;;;24.46;51.80;100492.81;4554249;28;20107;-60
2023/07/11 07:49:48;;;;;;;0.85;0.80;;;;;;;24.49;52.00;100489.13;4554743;28;20063;-59
2023/07/11 07:51:58;;;;;;;0.82;0.77;;;;;;;24.51;51.90;100488.72;4555158;28;20113;-59
2023/07/11 07:54:09;;;;;;;1.00;0.80;;;;;;;24.51;51.95;100485.84;4555352;28;20388;-59
2023/07/11 07:56:22;;;;;;;0.77;0.77;;;;;;;24.53;51.65;100487.09;4552593;28;20111;-60
2023/07/11 07:58:33;;;;;;;0.63;0.63;;;;;;;24.54;51.77;100485.03;4553605;28;20135;-59
2023/07/11 08:00:44;;;;;;;0.80;0.70;;;;;;;24.51;51.64;100480.06;4536644;28;20075;-60
2023/07/11 08:02:54;;;;;;;0.80;0.80;;;;;;;24.52;51.48;100470.19;4553976;28;20032;-60
2023/07/11 08:05:05;;;;;;;0.90;0.90;;;;;;;24.53;51.68;100469.78;4553608;28;20032;-60
2023/07/11 08:07:16;;;;;;;0.80;0.80;;;;;;;24.54;51.43;100459.91;4554212;28;20589;-60
2023/07/11 08:09:27;;;;;;;1.10;0.80;;;;;;;24.58;51.67;100468.59;4554512;28;20032;-60
2023/07/11 08:11:37;;;;;;;0.80;0.80;;;;;;;24.56;51.97;100459.50;4554416;28;20082;-60
2023/07/11 08:13:48;;;;;;;0.80;0.80;;;;;;;24.60;51.74;100460.38;4554263;28;20041;-60
2023/07/11 08:15:58;;;;;;;0.80;0.80;;;;;;;24.57;51.99;100455.38;4553679;28;20033;-60
2023/07/11 08:18:10;;;;;;;0.75;0.65;;;;;;;24.62;51.97;100467.41;4553838;28;20133;-60
2023/07/11 08:20:21;;;;;;;1.45;0.80;;;;;;;24.59;52.07;100447.97;4553582;28;20041;-60
2023/07/11 08:22:31;;;;;;;0.90;0.75;;;;;;;24.63;52.20;100450.91;4553701;27;20033;-60
2023/07/11 08:24:42;;;;;;;1.42;0.77;;;;;;;24.61;52.14;100451.31;4554876;28;20107;-60
2023/07/11 08:26:52;;;;;;;0.98;0.70;;;;;;;24.61;52.35;100445.53;4553384;28;20033;-60
2023/07/11 08:29:03;;;;;;;0.85;0.85;;;;;;;24.63;52.04;100451.75;4553318;28;20041;-61
2023/07/11 08:31:13;;;;;;;1.30;0.93;;;;;;;24.65;52.03;100449.31;4552960;28;20101;-60
2023/07/11 08:33:24;;;;;;;0.60;0.60;;;;;;;24.60;52.27;100435.22;4553358;28;20041;-60
2023/07/11 08:35:34;;;;;;;0.63;0.63;;;;;;;24.64;51.79;100438.97;4553222;27;20407;-60
2023/07/11 08:37:45;;;;;;;0.60;0.60;;;;;;;24.64;51.92;100430.31;4553414;28;20877;-60
2023/07/11 08:39:55;;;;;;;0.98;0.70;;;;;;;24.68;51.98;100439.88;4553968;28;20041;-60
2023/07/11 08:42:18;;;;;;;0.52;0.52;;;;;;;24.67;52.09;100432.41;4555130;28;20064;-60
2023/07/11 08:44:37;;;;;;;0.75;0.60;;;;;;;24.69;51.93;100435.75;4573331;27;20618;-61
2023/07/11 08:46:57;;;;;;;0.70;0.70;;;;;;;24.69;51.92;100434.91;4557395;28;20086;-60
2023/07/11 08:49:15;;;;;;;0.82;0.60;;;;;;;24.68;51.91;100425.44;4556359;28;20507;-60
2023/07/11 08:51:32;;;;;;;0.50;0.50;;;;;;;24.71;52.07;100436.19;4557068;28;20040;-61
2023/07/11 08:53:48;;;;;;;0.60;0.60;;;;;;;24.67;51.86;100435.31;4557216;28;20039;-60
2023/07/11 08:56:13;;;;;;;0.90;0.80;;;;;;;24.68;52.14;100424.59;4556309;28;20570;-60
2023/07/11 08:58:32;;;;;;;0.60;0.60;;;;;;;24.71;51.76;100427.53;4556758;28;20039;-60
2023/07/11 09:00:46;;;;;;;0.60;0.60;;;;;;;24.70;52.14;100419.28;4557095;28;20110;-61
2023/07/11 09:03:16;;;;;;;0.60;0.60;;;;;;;24.73;52.03;100413.53;4557517;28;20102;-61
2023/07/11 09:05:26;;;;;;;1.02;0.63;;;;;;;24.73;51.92;100422.19;4557654;28;20651;-61
2023/07/11 09:07:41;;;;;;;0.68;0.68;;;;;;;24.74;52.28;100412.28;4557261;28;20119;-63
2023/07/11 09:09:51;;;;;;;0.80;0.70;;;;;;;24.68;52.17;100401.50;4556890;28;20845;-62
2023/07/11 09:12:16;;;;;;;1.95;0.80;;;;;;;24.75;52.01;100418.91;4556463;28;20040;-61
2023/07/11 09:14:37;;;;;;;1.58;0.70;;;;;;;24.76;52.96;100412.72;4556150;28;20623;-61
2023/07/11 09:17:00;;;;;;;0.73;0.73;;;;;;;24.79;52.45;100411.91;4557243;28;20638;-64
2023/07/11 09:19:35;;;;;;;1.25;0.90;;;;;;;24.85;52.76;100404.53;4558488;28;20118;-62
2023/07/11 09:21:52;;;;;;;2.70;1.70;;;;;;;24.87;52.67;100407.88;4556885;28;20036;-64
2023/07/11 09:24:19;;;;;;;2.13;1.13;;;;;;;24.92;52.86;100403.75;4556577;28;20040;-63
2023/07/11 09:26:32;;;;;;;1.05;0.90;;;;;;;24.82;52.30;100382.25;4556935;28;20035;-63
2023/07/11 09:28:44;;;;;;;0.82;0.80;;;;;;;24.92;52.24;100395.94;4557077;28;20036;-63
2023/07/11 09:30:57;;;;;;;1.95;0.90;;;;;;;24.96;52.10;100396.78;4555079;28;20106;-63
2023/07/11 09:33:15;;;;;;;1.70;1.33;;;;;;;24.97;52.13;100395.53;4552825;28;20048;-62
2023/07/11 09:35:29;;;;;;;2.30;1.75;;;;;;;24.99;52.65;100404.63;4556340;28;20037;-63
2023/07/11 09:37:46;;;;;;;2.35;1.20;;;;;;;24.98;52.26;100399.25;4555551;28;20117;-62
2023/07/11 09:40:03;;;;;;;1.45;1.10;;;;;;;24.99;52.46;100393.09;4554047;28;20033;-63
2023/07/11 09:42:16;;;;;;;;;;;;;;;25.01;52.50;100401.34;4555457;28;20037;-62
2023/07/11 09:44:26;;;;;;;2.10;1.10;;;;;;;24.97;52.64;100395.53;4558126;28;19921;-62
2023/07/11 09:46:37;;;;;;;1.95;1.10;;;;;;;25.00;52.57;100393.94;4554169;28;20437;-63
2023/07/11 09:48:53;;;;;;;1.45;1.15;;;;;;;24.97;52.29;100391.84;4555512;28;20062;-63
2023/07/11 09:51:41;;;;;;;1.92;1.02;;;;;;;24.98;52.25;100397.22;4555236;28;20038;-62
2023/07/11 09:53:55;;;;;;;;;;;;;;;25.01;52.37;100390.63;4557932;28;20813;-62
2023/07/11 09:56:10;;;;;;;1.23;0.98;;;;;;;25.00;52.37;100388.16;4557206;28;19920;-62
2023/07/11 09:58:21;;;;;;;1.90;1.08;;;;;;;24.99;52.32;100381.53;4556484;28;20071;-63
2023/07/11 10:00:31;;;;;;;1.30;1.00;;;;;;;24.98;52.33;100381.94;4555487;28;20037;-63
2023/07/11 10:02:46;;;;;;;1.15;1.00;;;;;;;25.02;52.20;100379.91;4555173;28;20131;-63
2023/07/11 10:04:57;;;;;;;1.30;1.10;;;;;;;25.03;52.23;100370.84;4556900;28;20044;-63
2023/07/11 10:07:14;;;;;;;1.25;1.00;;;;;;;25.01;52.34;100367.53;4556687;28;20469;-63
2023/07/11 10:09:30;;;;;;;1.38;0.93;;;;;;;24.90;52.17;100342.69;4555120;28;20048;-62
2023/07/11 10:11:40;;;;;;;1.60;1.00;;;;;;;25.03;52.26;100362.19;4556259;28;20029;-63
2023/07/11 10:13:56;;;;;;;1.33;0.88;;;;;;;25.04;52.09;100360.94;4554803;28;20267;-63
2023/07/11 10:16:06;;;;;;;1.52;0.93;;;;;;;24.99;51.85;100358.44;4556618;28;20036;-63